createdAt,value
2023-01-15T00:01:26.977Z,9.71
2023-01-15T00:03:58.833Z,9.68
2023-01-15T00:06:29.702Z,9.69
2023-01-15T00:08:59.967Z,9.68
2023-01-15T00:11:29.542Z,9.69
2023-01-15T00:13:59.401Z,9.72
2023-01-15T00:16:30.497Z,9.68
2023-01-15T00:19:05.000Z,9.63
2023-01-15T00:21:34.403Z,9.66
2023-01-15T00:24:21.689Z,9.67
2023-01-15T00:27:08.606Z,9.69
2023-01-15T00:29:38.713Z,9.64
2023-01-15T00:32:10.970Z,9.63
2023-01-15T00:34:42.389Z,9.61
2023-01-15T00:37:12.332Z,9.58
2023-01-15T00:39:42.898Z,9.55
2023-01-15T00:42:12.952Z,9.51
2023-01-15T00:44:42.042Z,9.53
2023-01-15T00:47:14.980Z,9.51
2023-01-15T00:49:46.647Z,9.51
2023-01-15T00:52:16.911Z,9.52
2023-01-15T00:54:46.016Z,9.50
2023-01-15T00:57:17.864Z,9.47
2023-01-15T00:59:47.279Z,9.47
2023-01-15T01:02:16.791Z,9.47
2023-01-15T01:04:47.348Z,9.40
2023-01-15T01:07:17.375Z,9.40
2023-01-15T01:09:47.543Z,9.25
2023-01-15T01:12:18.196Z,9.06
2023-01-15T01:14:47.768Z,9.00
2023-01-15T01:17:18.375Z,8.90
2023-01-15T01:19:48.570Z,8.84
2023-01-15T01:22:18.521Z,8.84
2023-01-15T01:24:48.077Z,8.81
2023-01-15T01:27:19.048Z,8.76
2023-01-15T01:29:48.062Z,8.75
2023-01-15T01:32:16.691Z,8.72
2023-01-15T01:34:48.206Z,8.68
2023-01-15T01:37:19.044Z,8.71
2023-01-15T01:39:49.517Z,8.67
2023-01-15T01:42:20.302Z,8.64
2023-01-15T01:45:08.813Z,8.56
2023-01-15T01:47:38.315Z,8.53
2023-01-15T01:50:14.565Z,8.56
2023-01-15T01:52:51.201Z,8.57
2023-01-15T01:55:24.667Z,8.53
2023-01-15T01:58:00.391Z,8.47
2023-01-15T02:00:33.225Z,8.47
2023-01-15T02:03:04.668Z,8.39
2023-01-15T02:05:41.181Z,8.35
2023-01-15T02:08:11.346Z,8.21
2023-01-15T02:10:42.406Z,8.20
2023-01-15T02:13:21.193Z,8.14
2023-01-15T02:16:00.132Z,8.11
2023-01-15T02:18:37.106Z,8.07
2023-01-15T02:21:21.167Z,8.00
2023-01-15T02:24:12.926Z,8.06
2023-01-15T02:27:31.327Z,8.08
2023-01-15T02:30:09.812Z,8.10
2023-01-15T02:32:46.783Z,8.10
2023-01-15T02:35:31.048Z,8.11
2023-01-15T02:38:06.346Z,8.09
2023-01-15T02:40:39.199Z,8.12
2023-01-15T02:43:10.438Z,8.10
2023-01-15T02:45:44.618Z,8.07
2023-01-15T02:48:18.294Z,8.05
2023-01-15T02:50:53.931Z,8.04
2023-01-15T02:53:29.963Z,8.04
2023-01-15T02:56:06.288Z,8.03
2023-01-15T02:58:43.500Z,8.02
2023-01-15T03:01:20.168Z,8.00
2023-01-15T03:04:01.806Z,7.95
2023-01-15T03:06:43.409Z,7.92
2023-01-15T03:09:14.313Z,7.93
2023-01-15T03:11:51.261Z,7.96
2023-01-15T03:14:34.753Z,7.93
2023-01-15T03:17:15.795Z,7.93
2023-01-15T03:19:52.564Z,7.91
2023-01-15T03:22:28.784Z,7.94
2023-01-15T03:25:06.064Z,7.92
2023-01-15T03:27:35.718Z,7.89
2023-01-15T03:30:15.014Z,7.88
2023-01-15T03:32:44.325Z,7.86
2023-01-15T03:35:50.975Z,7.87
2023-01-15T03:38:24.638Z,7.83
2023-01-15T03:41:09.857Z,7.74
2023-01-15T03:43:53.448Z,7.73
2023-01-15T03:46:52.239Z,7.70
2023-01-15T03:49:34.901Z,7.69
2023-01-15T03:52:15.983Z,7.62
2023-01-15T03:54:54.758Z,7.56
2023-01-15T03:57:32.953Z,7.57
2023-01-15T04:00:10.476Z,7.60
2023-01-15T04:02:43.408Z,7.60
2023-01-15T04:05:14.713Z,7.58
2023-01-15T04:07:45.698Z,7.53
2023-01-15T04:10:15.721Z,7.53
2023-01-15T04:12:45.922Z,7.53
2023-01-15T04:15:15.983Z,7.54
2023-01-15T04:17:47.582Z,7.45
2023-01-15T04:20:16.161Z,7.43
2023-01-15T04:22:46.322Z,7.46
2023-01-15T04:25:16.532Z,7.48
2023-01-15T04:27:47.634Z,7.47
2023-01-15T04:30:19.461Z,7.45
2023-01-15T04:32:54.376Z,7.45
2023-01-15T04:35:25.101Z,7.45
2023-01-15T04:37:57.650Z,7.41
2023-01-15T04:40:46.520Z,7.42
2023-01-15T04:43:33.006Z,7.42
2023-01-15T04:46:02.635Z,7.40
2023-01-15T04:48:34.673Z,7.38
2023-01-15T04:51:07.420Z,7.37
2023-01-15T04:53:38.135Z,7.37
2023-01-15T04:56:08.670Z,7.35
2023-01-15T04:58:39.293Z,7.36
2023-01-15T05:01:14.858Z,7.33
2023-01-15T05:03:45.943Z,7.28
2023-01-15T05:06:18.210Z,7.31
2023-01-15T05:08:47.483Z,7.29
2023-01-15T05:11:16.877Z,7.29
2023-01-15T05:13:48.221Z,7.19
2023-01-15T05:16:21.519Z,7.15
2023-01-15T05:18:54.533Z,7.12
2023-01-15T05:21:26.593Z,7.10
2023-01-15T05:23:58.984Z,7.10
2023-01-15T05:26:29.799Z,7.11
2023-01-15T05:29:00.524Z,7.11
2023-01-15T05:31:32.038Z,7.09
2023-01-15T05:34:03.286Z,7.09
2023-01-15T05:36:33.830Z,7.13
2023-01-15T05:39:03.797Z,7.12
2023-01-15T05:41:52.738Z,7.04
2023-01-15T05:44:25.376Z,7.05
2023-01-15T05:47:00.720Z,6.97
2023-01-15T05:49:32.723Z,6.87
2023-01-15T05:52:03.257Z,6.85
2023-01-15T05:54:35.708Z,6.88
2023-01-15T05:57:05.930Z,6.91
2023-01-15T05:59:36.140Z,6.91
2023-01-15T06:02:06.862Z,6.92
2023-01-15T06:04:39.078Z,6.93
2023-01-15T06:07:08.662Z,6.95
2023-01-15T06:09:38.465Z,6.97
2023-01-15T06:12:09.886Z,6.88
2023-01-15T06:14:41.145Z,6.89
2023-01-15T06:17:10.679Z,6.88
2023-01-15T06:19:41.788Z,6.86
2023-01-15T06:22:12.425Z,6.80
2023-01-15T06:24:42.895Z,6.78
2023-01-15T06:27:13.422Z,6.78
2023-01-15T06:29:43.418Z,6.79
2023-01-15T06:32:13.938Z,6.79
2023-01-15T06:34:45.344Z,6.77
2023-01-15T06:37:14.681Z,6.74
2023-01-15T06:39:43.943Z,6.59
2023-01-15T06:42:31.758Z,6.57
2023-01-15T06:45:18.276Z,6.55
2023-01-15T06:47:51.607Z,6.52
2023-01-15T06:50:23.168Z,6.53
2023-01-15T06:52:53.673Z,6.48
2023-01-15T06:55:24.619Z,6.50
2023-01-15T06:57:54.680Z,6.49
2023-01-15T07:00:25.189Z,6.53
2023-01-15T07:02:57.261Z,6.54
2023-01-15T07:05:27.623Z,6.53
2023-01-15T07:07:56.502Z,6.53
2023-01-15T07:10:26.888Z,6.43
2023-01-15T07:12:56.474Z,6.44
2023-01-15T07:15:26.807Z,6.45
2023-01-15T07:17:57.375Z,6.47
2023-01-15T07:20:27.818Z,6.49
2023-01-15T07:22:57.719Z,6.47
2023-01-15T07:25:27.780Z,6.40
2023-01-15T07:27:57.717Z,6.43
2023-01-15T07:30:27.778Z,6.43
2023-01-15T07:32:58.857Z,6.41
2023-01-15T07:35:31.176Z,6.41
2023-01-15T07:38:01.802Z,6.39
2023-01-15T07:40:31.862Z,6.41
2023-01-15T07:43:18.467Z,6.43
2023-01-15T07:46:01.875Z,6.42
2023-01-15T07:48:53.260Z,6.40
2023-01-15T07:51:24.882Z,6.35
2023-01-15T07:53:54.571Z,6.28
2023-01-15T07:56:24.782Z,6.31
2023-01-15T07:58:55.360Z,6.32
2023-01-15T08:01:25.043Z,6.37
2023-01-15T08:03:55.805Z,6.32
2023-01-15T08:06:27.228Z,6.31
2023-01-15T08:08:56.886Z,6.31
2023-01-15T08:11:44.354Z,6.31
2023-01-15T08:14:39.411Z,6.34
2023-01-15T08:17:08.224Z,6.27
2023-01-15T08:19:39.331Z,6.27
2023-01-15T08:22:11.624Z,6.24
2023-01-15T08:24:41.087Z,6.19
2023-01-15T08:27:11.221Z,6.19
2023-01-15T08:29:41.288Z,6.11
2023-01-15T08:32:10.641Z,6.06
2023-01-15T08:34:40.546Z,6.01
2023-01-15T08:37:11.752Z,5.97
2023-01-15T08:39:40.828Z,5.96
2023-01-15T08:42:10.195Z,5.94
2023-01-15T08:44:39.785Z,5.83
2023-01-15T08:47:10.130Z,5.73
2023-01-15T08:49:40.287Z,5.72
2023-01-15T08:52:11.740Z,5.76
2023-01-15T08:54:42.306Z,5.71
2023-01-15T08:57:13.120Z,5.68
2023-01-15T08:59:43.451Z,5.67
2023-01-15T09:02:16.791Z,5.67
2023-01-15T09:04:47.017Z,5.73
2023-01-15T09:07:18.995Z,5.77
2023-01-15T09:09:49.197Z,5.79
2023-01-15T09:12:18.819Z,5.76
2023-01-15T09:14:59.236Z,5.75
2023-01-15T09:17:32.342Z,5.62
2023-01-15T09:20:03.192Z,5.68
2023-01-15T09:22:34.141Z,5.66
2023-01-15T09:25:03.189Z,5.69
2023-01-15T09:27:35.465Z,5.71
2023-01-15T09:30:07.190Z,5.71
2023-01-15T09:32:38.604Z,5.62
2023-01-15T09:35:10.183Z,5.55
2023-01-15T09:37:41.050Z,5.52
2023-01-15T09:40:31.988Z,5.53
2023-01-15T09:43:10.454Z,5.47
2023-01-15T09:45:52.460Z,5.31
2023-01-15T09:48:38.136Z,5.31
2023-01-15T09:51:26.130Z,5.21
2023-01-15T09:54:22.299Z,5.07
2023-01-15T09:56:51.451Z,5.10
2023-01-15T09:59:34.183Z,5.16
2023-01-15T10:02:22.805Z,5.14
2023-01-15T10:04:59.664Z,5.09
2023-01-15T10:07:40.289Z,5.06
2023-01-15T10:10:20.529Z,5.14
2023-01-15T10:12:56.273Z,5.07
2023-01-15T10:15:35.157Z,5.16
2023-01-15T10:18:08.754Z,5.18
2023-01-15T10:21:23.114Z,5.18
2023-01-15T10:24:08.033Z,5.19
2023-01-15T10:26:43.237Z,5.21
2023-01-15T10:29:23.367Z,5.25
2023-01-15T10:31:55.112Z,5.31
2023-01-15T10:35:11.403Z,5.27
2023-01-15T10:37:48.762Z,5.31
2023-01-15T10:40:49.409Z,5.33
2023-01-15T10:43:26.309Z,5.38
2023-01-15T10:46:02.360Z,5.33
2023-01-15T10:48:40.604Z,5.41
2023-01-15T10:51:19.668Z,5.44
2023-01-15T10:53:56.942Z,5.48
2023-01-15T10:56:39.887Z,5.56
2023-01-15T10:59:22.256Z,5.62
2023-01-15T11:01:57.364Z,5.66
2023-01-15T11:04:31.010Z,5.68
2023-01-15T11:07:01.788Z,5.69
2023-01-15T11:09:35.402Z,5.71
2023-01-15T11:12:41.013Z,5.78
2023-01-15T11:15:42.003Z,5.82
2023-01-15T11:18:39.536Z,5.88
2023-01-15T11:21:15.307Z,5.85
2023-01-15T11:23:45.979Z,5.93
2023-01-15T11:26:24.133Z,5.86
2023-01-15T11:28:54.243Z,5.85
2023-01-15T11:31:37.507Z,5.85
2023-01-15T11:34:18.371Z,5.89
2023-01-15T11:36:47.996Z,5.92
2023-01-15T11:39:30.937Z,5.90
2023-01-15T11:42:22.016Z,5.92
2023-01-15T11:45:13.848Z,5.87
2023-01-15T11:48:11.634Z,5.86
2023-01-15T11:50:51.580Z,5.81
2023-01-15T11:53:25.264Z,5.79
2023-01-15T11:56:02.756Z,5.79
2023-01-15T11:58:42.529Z,5.86
2023-01-15T12:01:17.373Z,5.90
2023-01-15T12:03:49.069Z,5.92
2023-01-15T12:06:23.493Z,5.95
2023-01-15T12:09:00.832Z,6.03
2023-01-15T12:11:59.815Z,6.09
2023-01-15T12:14:50.669Z,6.08
2023-01-15T12:17:39.976Z,6.09
2023-01-15T12:20:26.151Z,6.12
2023-01-15T12:23:20.748Z,6.15
2023-01-15T12:26:04.309Z,6.15
2023-01-15T12:28:39.857Z,6.21
2023-01-15T12:31:19.007Z,6.23
2023-01-15T12:33:56.026Z,6.18
2023-01-15T12:36:35.147Z,6.22
2023-01-15T12:39:16.076Z,6.24
2023-01-15T12:42:11.059Z,6.23
2023-01-15T12:45:05.923Z,6.27
2023-01-15T12:47:45.230Z,6.28
2023-01-15T12:50:35.012Z,6.30
2023-01-15T12:53:15.420Z,6.33
2023-01-15T12:55:53.988Z,6.37
2023-01-15T12:58:42.782Z,6.42
2023-01-15T13:01:25.993Z,6.47
2023-01-15T13:04:14.229Z,6.52
2023-01-15T13:06:52.255Z,6.47
2023-01-15T13:09:38.459Z,6.41
2023-01-15T13:12:14.880Z,6.44
2023-01-15T13:14:46.689Z,6.50
2023-01-15T13:17:29.744Z,6.45
2023-01-15T13:20:33.910Z,6.46
2023-01-15T13:23:18.881Z,6.46
2023-01-15T13:26:14.536Z,6.46
2023-01-15T13:29:03.269Z,6.52
2023-01-15T13:32:01.176Z,6.57
2023-01-15T13:34:42.193Z,6.59
2023-01-15T13:37:24.869Z,6.58
2023-01-15T13:39:59.201Z,6.63
2023-01-15T13:42:36.260Z,6.63
2023-01-15T13:45:37.164Z,6.67
2023-01-15T13:48:15.106Z,6.62
2023-01-15T13:50:54.929Z,6.64
2023-01-15T13:53:32.500Z,6.57
2023-01-15T13:56:07.037Z,6.66
2023-01-15T13:58:43.471Z,6.68
2023-01-15T14:01:27.596Z,6.69
2023-01-15T14:04:07.067Z,6.63
2023-01-15T14:06:44.510Z,6.66
2023-01-15T14:09:27.820Z,6.68
2023-01-15T14:12:18.784Z,6.55
2023-01-15T14:15:19.805Z,6.53
2023-01-15T14:18:22.774Z,6.51
2023-01-15T14:21:09.096Z,6.54
2023-01-15T14:24:21.811Z,6.57
2023-01-15T14:27:01.150Z,6.58
2023-01-15T14:30:03.942Z,6.59
2023-01-15T14:32:57.711Z,6.55
2023-01-15T14:35:29.113Z,6.56
2023-01-15T14:38:05.367Z,6.61
2023-01-15T14:40:37.248Z,6.61
2023-01-15T14:43:19.670Z,6.60
2023-01-15T14:45:52.787Z,6.61
2023-01-15T14:48:38.152Z,6.56
2023-01-15T14:51:14.685Z,6.43
2023-01-15T14:53:49.793Z,6.41
2023-01-15T14:56:25.159Z,6.40
2023-01-15T14:59:03.124Z,6.36
2023-01-15T15:01:57.491Z,6.37
2023-01-15T15:04:37.113Z,6.35
2023-01-15T15:07:13.355Z,6.34
2023-01-15T15:09:46.933Z,6.39
2023-01-15T15:12:37.499Z,6.42
2023-01-15T15:15:17.504Z,6.36
2023-01-15T15:18:00.845Z,6.29
2023-01-15T15:20:47.604Z,6.26
2023-01-15T15:23:27.455Z,6.21
2023-01-15T15:26:03.529Z,6.26
2023-01-15T15:28:32.836Z,6.19
2023-01-15T15:31:02.787Z,6.19
2023-01-15T15:33:42.487Z,6.12
2023-01-15T15:36:12.190Z,6.15
2023-01-15T15:38:46.578Z,6.12
2023-01-15T15:41:19.037Z,6.13
2023-01-15T15:44:15.619Z,6.05
2023-01-15T15:47:08.836Z,6.08
2023-01-15T15:49:42.848Z,6.00
2023-01-15T15:52:24.650Z,5.96
2023-01-15T15:55:00.688Z,5.90
2023-01-15T15:57:32.893Z,5.91
2023-01-15T16:00:03.797Z,5.94
2023-01-15T16:02:37.867Z,5.95
2023-01-15T16:05:26.134Z,5.95
2023-01-15T16:07:57.073Z,5.91
2023-01-15T16:10:34.213Z,5.93
2023-01-15T16:13:08.960Z,5.92
2023-01-15T16:15:42.969Z,5.88
2023-01-15T16:18:25.272Z,5.87
2023-01-15T16:20:56.925Z,5.84
2023-01-15T16:23:29.705Z,5.87
2023-01-15T16:26:07.822Z,5.83
2023-01-15T16:28:43.066Z,5.84
2023-01-15T16:31:17.316Z,5.80
2023-01-15T16:33:47.017Z,5.77
2023-01-15T16:36:20.551Z,5.71
2023-01-15T16:38:52.446Z,5.68
2023-01-15T16:41:27.647Z,5.69
2023-01-15T16:44:08.793Z,5.67
2023-01-15T16:46:42.025Z,5.68
2023-01-15T16:49:28.365Z,5.62
2023-01-15T16:52:00.449Z,5.63
2023-01-15T16:54:47.553Z,5.66
2023-01-15T16:57:50.843Z,5.58
2023-01-15T17:00:33.381Z,5.63
2023-01-15T17:03:03.714Z,5.63
2023-01-15T17:05:33.868Z,5.57
2023-01-15T17:08:04.653Z,5.58
2023-01-15T17:10:34.733Z,5.57
2023-01-15T17:13:03.982Z,5.59
2023-01-15T17:15:43.667Z,5.57
2023-01-15T17:18:29.124Z,5.58
2023-01-15T17:21:00.710Z,5.53
2023-01-15T17:23:37.762Z,5.55
2023-01-15T17:26:08.440Z,5.55
2023-01-15T17:28:38.388Z,5.54
2023-01-15T17:31:18.049Z,5.56
2023-01-15T17:33:48.430Z,5.57
2023-01-15T17:36:18.638Z,5.56
2023-01-15T17:38:50.094Z,5.53
2023-01-15T17:41:22.185Z,5.54
2023-01-15T17:43:51.940Z,5.53
2023-01-15T17:46:20.507Z,5.52
2023-01-15T17:48:49.552Z,5.47
2023-01-15T17:51:19.431Z,5.52
2023-01-15T17:53:50.235Z,5.56
2023-01-15T17:56:37.789Z,5.54
2023-01-15T17:59:27.462Z,5.57
2023-01-15T18:02:15.261Z,5.59
2023-01-15T18:05:06.999Z,5.58
2023-01-15T18:07:42.269Z,5.56
2023-01-15T18:10:19.405Z,5.59
2023-01-15T18:12:48.773Z,5.61
2023-01-15T18:15:17.959Z,5.59
2023-01-15T18:17:47.756Z,5.62
2023-01-15T18:20:18.898Z,5.63
2023-01-15T18:22:48.772Z,5.62
2023-01-15T18:25:19.819Z,5.56
2023-01-15T18:27:50.929Z,5.59
2023-01-15T18:30:20.133Z,5.57
2023-01-15T18:32:51.036Z,5.54
2023-01-15T18:35:20.688Z,5.55
2023-01-15T18:37:50.153Z,5.52
2023-01-15T18:40:21.567Z,5.55
2023-01-15T18:43:08.402Z,5.54
2023-01-15T18:45:56.499Z,5.51
2023-01-15T18:48:25.962Z,5.50
2023-01-15T18:50:55.950Z,5.51
2023-01-15T18:53:25.879Z,5.46
2023-01-15T18:56:03.008Z,5.47
2023-01-15T18:58:31.939Z,5.49
2023-01-15T19:01:09.202Z,5.52
2023-01-15T19:03:38.978Z,5.51
2023-01-15T19:06:12.016Z,5.54
2023-01-15T19:08:41.926Z,5.56
2023-01-15T19:11:16.654Z,5.56
2023-01-15T19:14:06.309Z,5.57
2023-01-15T19:16:53.378Z,5.37
2023-01-15T19:19:23.701Z,5.35
2023-01-15T19:22:13.130Z,5.37
2023-01-15T19:24:42.675Z,5.42
2023-01-15T19:27:14.846Z,5.37
2023-01-15T19:29:44.890Z,5.32
2023-01-15T19:32:13.391Z,5.31
2023-01-15T19:34:42.358Z,5.27
2023-01-15T19:37:13.337Z,5.18
2023-01-15T19:39:43.265Z,5.18
2023-01-15T19:42:33.093Z,5.18
2023-01-15T19:45:20.386Z,5.15
2023-01-15T19:48:08.993Z,5.16
2023-01-15T19:50:43.399Z,5.14
2023-01-15T19:53:13.491Z,5.18
2023-01-15T19:55:46.403Z,5.16
2023-01-15T19:58:17.737Z,5.16
2023-01-15T20:00:49.800Z,5.20
2023-01-15T20:03:20.434Z,5.19
2023-01-15T20:05:50.055Z,5.23
2023-01-15T20:08:18.717Z,5.25
2023-01-15T20:10:51.680Z,5.29
2023-01-15T20:13:42.286Z,5.29
2023-01-15T20:16:15.361Z,5.29
2023-01-15T20:18:43.853Z,5.27
2023-01-15T20:21:14.744Z,5.27
2023-01-15T20:23:44.064Z,5.29
2023-01-15T20:26:15.683Z,5.29
2023-01-15T20:28:48.302Z,5.30
2023-01-15T20:31:19.842Z,5.31
2023-01-15T20:33:49.167Z,5.22
2023-01-15T20:36:18.052Z,5.25
2023-01-15T20:38:48.073Z,5.28
2023-01-15T20:41:34.805Z,5.25
2023-01-15T20:44:23.064Z,5.29
2023-01-15T20:46:52.059Z,5.33
2023-01-15T20:49:27.766Z,5.30
2023-01-15T20:51:58.211Z,5.22
2023-01-15T20:54:28.069Z,5.26
2023-01-15T20:56:57.800Z,5.21
2023-01-15T20:59:28.857Z,5.26
2023-01-15T21:01:59.026Z,5.22
2023-01-15T21:04:28.004Z,5.20
2023-01-15T21:06:57.892Z,5.18
2023-01-15T21:09:26.358Z,5.22
2023-01-15T21:11:56.062Z,5.24
2023-01-15T21:14:28.418Z,5.25
2023-01-15T21:16:59.647Z,5.26
2023-01-15T21:19:30.989Z,5.24
2023-01-15T21:22:00.525Z,5.23
2023-01-15T21:24:29.631Z,5.24
2023-01-15T21:26:58.078Z,5.24
2023-01-15T21:29:28.626Z,5.25
2023-01-15T21:31:57.661Z,5.24
2023-01-15T21:34:26.933Z,5.25
2023-01-15T21:36:56.485Z,5.26
2023-01-15T21:39:27.064Z,5.20
2023-01-15T21:42:12.572Z,5.17
2023-01-15T21:44:44.556Z,5.14
2023-01-15T21:47:16.665Z,5.09
2023-01-15T21:49:46.351Z,5.04
2023-01-15T21:52:18.434Z,5.04
2023-01-15T21:54:47.563Z,5.04
2023-01-15T21:57:19.672Z,4.98
2023-01-15T21:59:50.519Z,4.95
2023-01-15T22:02:22.657Z,4.94
2023-01-15T22:04:53.104Z,4.90
2023-01-15T22:07:22.613Z,4.90
2023-01-15T22:09:52.109Z,4.93
2023-01-15T22:12:21.679Z,4.92
2023-01-15T22:14:53.790Z,4.85
2023-01-15T22:17:24.268Z,4.83
2023-01-15T22:19:54.808Z,4.82
2023-01-15T22:22:26.240Z,4.78
2023-01-15T22:24:55.649Z,4.80
2023-01-15T22:27:25.066Z,4.82
2023-01-15T22:29:56.604Z,4.84
2023-01-15T22:32:27.393Z,4.84
2023-01-15T22:34:56.938Z,4.77
2023-01-15T22:37:27.193Z,4.78
2023-01-15T22:39:56.702Z,4.81
2023-01-15T22:42:27.424Z,4.81
2023-01-15T22:45:00.582Z,4.81
2023-01-15T22:47:31.015Z,4.79
2023-01-15T22:50:00.469Z,4.79
2023-01-15T22:52:30.026Z,4.79
2023-01-15T22:55:00.112Z,4.78
2023-01-15T22:57:31.071Z,4.76
2023-01-15T23:00:01.494Z,4.75
2023-01-15T23:02:48.426Z,4.69
2023-01-15T23:05:19.527Z,4.73
2023-01-15T23:07:49.489Z,4.77
2023-01-15T23:10:19.324Z,4.75
2023-01-15T23:12:49.240Z,4.78
2023-01-15T23:15:20.679Z,4.76
2023-01-15T23:17:49.068Z,4.80
2023-01-15T23:20:19.747Z,4.83
2023-01-15T23:22:49.314Z,4.84
2023-01-15T23:25:19.033Z,4.86
2023-01-15T23:27:48.698Z,4.89
2023-01-15T23:30:19.846Z,4.90
2023-01-15T23:32:49.137Z,4.88
2023-01-15T23:35:19.683Z,4.92
2023-01-15T23:37:49.917Z,4.95
2023-01-15T23:40:21.112Z,4.96
2023-01-15T23:43:07.767Z,5.01
2023-01-15T23:45:57.018Z,5.03
2023-01-15T23:48:26.972Z,5.04
2023-01-15T23:50:57.167Z,5.06
2023-01-15T23:53:27.173Z,5.10
2023-01-15T23:55:58.966Z,5.11
2023-01-15T23:58:27.777Z,5.12
